sensor_id;sensor_type;location;lat;lon;timestamp;P1;durP1;ratioP1;P2;durP2;ratioP2
52047;SDS011;46904;49.438;8.752;2023-04-06T00:00:40;5.05;;;3.58;;
52047;SDS011;46904;49.438;8.752;2023-04-06T00:03:06;4.03;;;3.08;;
52047;SDS011;46904;49.438;8.752;2023-04-06T00:05:31;4.38;;;3.55;;
52047;SDS011;46904;49.438;8.752;2023-04-06T00:07:57;5.68;;;3.90;;
52047;SDS011;46904;49.438;8.752;2023-04-06T00:10:23;4.95;;;3.53;;
52047;SDS011;46904;49.438;8.752;2023-04-06T00:12:49;4.15;;;3.65;;
52047;SDS011;46904;49.438;8.752;2023-04-06T00:15:14;5.97;;;4.07;;
52047;SDS011;46904;49.438;8.752;2023-04-06T00:17:40;4.60;;;3.67;;
52047;SDS011;46904;49.438;8.752;2023-04-06T00:20:05;5.45;;;4.07;;
52047;SDS011;46904;49.438;8.752;2023-04-06T00:22:31;5.85;;;3.67;;
52047;SDS011;46904;49.438;8.752;2023-04-06T00:24:57;6.03;;;3.97;;
52047;SDS011;46904;49.438;8.752;2023-04-06T00:27:22;3.90;;;3.50;;
52047;SDS011;46904;49.438;8.752;2023-04-06T00:29:48;4.68;;;3.75;;
52047;SDS011;46904;49.438;8.752;2023-04-06T00:32:13;6.30;;;4.15;;
52047;SDS011;46904;49.438;8.752;2023-04-06T00:34:39;4.15;;;3.47;;
52047;SDS011;46904;49.438;8.752;2023-04-06T00:37:04;5.50;;;3.85;;
52047;SDS011;46904;49.438;8.752;2023-04-06T00:39:30;4.90;;;3.88;;
52047;SDS011;46904;49.438;8.752;2023-04-06T00:41:55;5.57;;;4.35;;
52047;SDS011;46904;49.438;8.752;2023-04-06T00:44:21;4.20;;;3.80;;
52047;SDS011;46904;49.438;8.752;2023-04-06T00:46:47;5.38;;;4.35;;
52047;SDS011;46904;49.438;8.752;2023-04-06T00:49:12;4.82;;;3.92;;
52047;SDS011;46904;49.438;8.752;2023-04-06T00:51:38;5.72;;;4.10;;
52047;SDS011;46904;49.438;8.752;2023-04-06T00:54:03;5.85;;;4.40;;
52047;SDS011;46904;49.438;8.752;2023-04-06T00:56:29;4.97;;;3.85;;
52047;SDS011;46904;49.438;8.752;2023-04-06T00:58:55;4.75;;;3.90;;
52047;SDS011;46904;49.438;8.752;2023-04-06T01:01:20;5.60;;;4.00;;
52047;SDS011;46904;49.438;8.752;2023-04-06T01:03:46;6.10;;;4.22;;
52047;SDS011;46904;49.438;8.752;2023-04-06T01:06:12;4.57;;;4.05;;
52047;SDS011;46904;49.438;8.752;2023-04-06T01:08:37;5.18;;;3.97;;
52047;SDS011;46904;49.438;8.752;2023-04-06T01:11:03;5.93;;;4.40;;
52047;SDS011;46904;49.438;8.752;2023-04-06T01:13:28;4.10;;;3.70;;
52047;SDS011;46904;49.438;8.752;2023-04-06T01:15:54;4.10;;;3.55;;
52047;SDS011;46904;49.438;8.752;2023-04-06T01:18:24;4.13;;;3.72;;
52047;SDS011;46904;49.438;8.752;2023-04-06T01:20:50;5.32;;;3.90;;
52047;SDS011;46904;49.438;8.752;2023-04-06T01:23:15;4.40;;;3.63;;
52047;SDS011;46904;49.438;8.752;2023-04-06T01:25:41;4.97;;;4.35;;
52047;SDS011;46904;49.438;8.752;2023-04-06T01:28:06;6.10;;;4.25;;
52047;SDS011;46904;49.438;8.752;2023-04-06T01:30:32;6.25;;;4.05;;
52047;SDS011;46904;49.438;8.752;2023-04-06T01:32:58;6.13;;;4.28;;
52047;SDS011;46904;49.438;8.752;2023-04-06T01:35:25;4.03;;;3.63;;
52047;SDS011;46904;49.438;8.752;2023-04-06T01:37:50;4.18;;;3.70;;
52047;SDS011;46904;49.438;8.752;2023-04-06T01:40:16;5.57;;;4.50;;
52047;SDS011;46904;49.438;8.752;2023-04-06T01:42:41;5.35;;;4.10;;
52047;SDS011;46904;49.438;8.752;2023-04-06T01:45:07;5.93;;;4.30;;
52047;SDS011;46904;49.438;8.752;2023-04-06T01:47:33;5.47;;;4.22;;
52047;SDS011;46904;49.438;8.752;2023-04-06T01:49:58;5.03;;;3.80;;
52047;SDS011;46904;49.438;8.752;2023-04-06T01:52:24;5.18;;;3.72;;
52047;SDS011;46904;49.438;8.752;2023-04-06T01:54:49;4.90;;;4.32;;
52047;SDS011;46904;49.438;8.752;2023-04-06T01:57:15;5.93;;;4.18;;
52047;SDS011;46904;49.438;8.752;2023-04-06T01:59:40;5.55;;;4.15;;
52047;SDS011;46904;49.438;8.752;2023-04-06T02:02:06;5.15;;;4.30;;
52047;SDS011;46904;49.438;8.752;2023-04-06T02:04:31;6.03;;;4.43;;
52047;SDS011;46904;49.438;8.752;2023-04-06T02:06:57;5.22;;;4.10;;
52047;SDS011;46904;49.438;8.752;2023-04-06T02:09:22;6.43;;;4.53;;
52047;SDS011;46904;49.438;8.752;2023-04-06T02:11:48;5.28;;;4.40;;
52047;SDS011;46904;49.438;8.752;2023-04-06T02:14:13;4.63;;;4.10;;
52047;SDS011;46904;49.438;8.752;2023-04-06T02:16:39;5.40;;;4.47;;
52047;SDS011;46904;49.438;8.752;2023-04-06T02:19:05;6.65;;;4.30;;
52047;SDS011;46904;49.438;8.752;2023-04-06T02:21:30;5.35;;;4.18;;
52047;SDS011;46904;49.438;8.752;2023-04-06T02:23:56;6.50;;;4.53;;
52047;SDS011;46904;49.438;8.752;2023-04-06T02:26:21;8.23;;;6.18;;
52047;SDS011;46904;49.438;8.752;2023-04-06T02:28:47;5.78;;;5.03;;
52047;SDS011;46904;49.438;8.752;2023-04-06T02:31:12;8.27;;;5.88;;
52047;SDS011;46904;49.438;8.752;2023-04-06T02:33:38;6.45;;;5.68;;
52047;SDS011;46904;49.438;8.752;2023-04-06T02:36:03;6.93;;;5.22;;
52047;SDS011;46904;49.438;8.752;2023-04-06T02:38:29;9.63;;;7.07;;
52047;SDS011;46904;49.438;8.752;2023-04-06T02:40:54;9.98;;;6.43;;
52047;SDS011;46904;49.438;8.752;2023-04-06T02:43:20;7.72;;;5.40;;
52047;SDS011;46904;49.438;8.752;2023-04-06T02:45:45;5.85;;;5.00;;
52047;SDS011;46904;49.438;8.752;2023-04-06T02:48:11;6.60;;;5.78;;
52047;SDS011;46904;49.438;8.752;2023-04-06T02:50:36;5.80;;;5.20;;
52047;SDS011;46904;49.438;8.752;2023-04-06T02:53:02;9.65;;;6.72;;
52047;SDS011;46904;49.438;8.752;2023-04-06T02:55:28;15.63;;;9.82;;
52047;SDS011;46904;49.438;8.752;2023-04-06T02:57:53;18.08;;;9.95;;
52047;SDS011;46904;49.438;8.752;2023-04-06T03:00:19;14.80;;;8.52;;
52047;SDS011;46904;49.438;8.752;2023-04-06T03:02:44;18.10;;;10.00;;
52047;SDS011;46904;49.438;8.752;2023-04-06T03:05:10;11.50;;;7.80;;
52047;SDS011;46904;49.438;8.752;2023-04-06T03:07:35;20.85;;;11.68;;
52047;SDS011;46904;49.438;8.752;2023-04-06T03:10:01;19.20;;;10.77;;
52047;SDS011;46904;49.438;8.752;2023-04-06T03:12:26;18.13;;;10.25;;
52047;SDS011;46904;49.438;8.752;2023-04-06T03:14:52;12.93;;;8.70;;
52047;SDS011;46904;49.438;8.752;2023-04-06T03:17:17;9.52;;;7.15;;
52047;SDS011;46904;49.438;8.752;2023-04-06T03:19:43;7.25;;;5.30;;
52047;SDS011;46904;49.438;8.752;2023-04-06T03:22:08;5.65;;;4.90;;
52047;SDS011;46904;49.438;8.752;2023-04-06T03:24:34;5.50;;;4.97;;
52047;SDS011;46904;49.438;8.752;2023-04-06T03:26:59;8.15;;;5.25;;
52047;SDS011;46904;49.438;8.752;2023-04-06T03:29:25;6.43;;;4.85;;
52047;SDS011;46904;49.438;8.752;2023-04-06T03:31:50;6.32;;;5.00;;
52047;SDS011;46904;49.438;8.752;2023-04-06T03:34:16;5.15;;;4.45;;
52047;SDS011;46904;49.438;8.752;2023-04-06T03:36:42;5.15;;;4.53;;
52047;SDS011;46904;49.438;8.752;2023-04-06T03:39:07;4.90;;;4.25;;
52047;SDS011;46904;49.438;8.752;2023-04-06T03:41:33;5.80;;;4.70;;
52047;SDS011;46904;49.438;8.752;2023-04-06T03:43:58;5.07;;;4.13;;
52047;SDS011;46904;49.438;8.752;2023-04-06T03:46:24;6.00;;;4.55;;
52047;SDS011;46904;49.438;8.752;2023-04-06T03:48:49;6.13;;;5.05;;
52047;SDS011;46904;49.438;8.752;2023-04-06T03:51:15;5.00;;;4.20;;
52047;SDS011;46904;49.438;8.752;2023-04-06T03:53:40;6.05;;;4.88;;
52047;SDS011;46904;49.438;8.752;2023-04-06T03:56:06;6.75;;;4.88;;
52047;SDS011;46904;49.438;8.752;2023-04-06T03:58:31;6.05;;;4.82;;
52047;SDS011;46904;49.438;8.752;2023-04-06T04:00:57;6.25;;;4.40;;
52047;SDS011;46904;49.438;8.752;2023-04-06T04:03:23;6.80;;;4.82;;
52047;SDS011;46904;49.438;8.752;2023-04-06T04:05:48;5.72;;;4.63;;
52047;SDS011;46904;49.438;8.752;2023-04-06T04:08:14;7.05;;;4.55;;
52047;SDS011;46904;49.438;8.752;2023-04-06T04:10:39;8.18;;;4.47;;
52047;SDS011;46904;49.438;8.752;2023-04-06T04:13:05;6.30;;;4.75;;
52047;SDS011;46904;49.438;8.752;2023-04-06T04:15:31;7.47;;;4.93;;
52047;SDS011;46904;49.438;8.752;2023-04-06T04:17:56;8.68;;;5.18;;
52047;SDS011;46904;49.438;8.752;2023-04-06T04:20:22;6.10;;;4.68;;
52047;SDS011;46904;49.438;8.752;2023-04-06T04:22:47;8.18;;;4.55;;
52047;SDS011;46904;49.438;8.752;2023-04-06T04:25:13;5.22;;;4.57;;
52047;SDS011;46904;49.438;8.752;2023-04-06T04:27:38;6.30;;;5.05;;
52047;SDS011;46904;49.438;8.752;2023-04-06T04:30:04;6.97;;;4.90;;
52047;SDS011;46904;49.438;8.752;2023-04-06T04:32:30;7.50;;;5.00;;
52047;SDS011;46904;49.438;8.752;2023-04-06T04:34:56;7.88;;;5.00;;
52047;SDS011;46904;49.438;8.752;2023-04-06T04:37:21;5.00;;;4.45;;
52047;SDS011;46904;49.438;8.752;2023-04-06T04:39:47;6.72;;;4.82;;
52047;SDS011;46904;49.438;8.752;2023-04-06T04:42:12;6.88;;;5.60;;
52047;SDS011;46904;49.438;8.752;2023-04-06T04:44:38;8.30;;;5.40;;
52047;SDS011;46904;49.438;8.752;2023-04-06T04:47:04;8.68;;;5.45;;
52047;SDS011;46904;49.438;8.752;2023-04-06T04:49:29;13.10;;;8.00;;
52047;SDS011;46904;49.438;8.752;2023-04-06T04:51:55;15.93;;;9.13;;
52047;SDS011;46904;49.438;8.752;2023-04-06T04:54:21;10.77;;;6.60;;
52047;SDS011;46904;49.438;8.752;2023-04-06T04:56:46;10.20;;;5.78;;
52047;SDS011;46904;49.438;8.752;2023-04-06T04:59:12;14.57;;;7.75;;
52047;SDS011;46904;49.438;8.752;2023-04-06T05:01:37;11.63;;;7.22;;
52047;SDS011;46904;49.438;8.752;2023-04-06T05:04:03;8.73;;;6.38;;
52047;SDS011;46904;49.438;8.752;2023-04-06T05:06:28;6.72;;;5.50;;
52047;SDS011;46904;49.438;8.752;2023-04-06T05:08:54;7.55;;;5.43;;
52047;SDS011;46904;49.438;8.752;2023-04-06T05:11:19;7.00;;;5.70;;
52047;SDS011;46904;49.438;8.752;2023-04-06T05:13:45;7.40;;;4.97;;
52047;SDS011;46904;49.438;8.752;2023-04-06T05:16:10;7.47;;;4.88;;
52047;SDS011;46904;49.438;8.752;2023-04-06T05:18:36;6.25;;;4.75;;
52047;SDS011;46904;49.438;8.752;2023-04-06T05:21:01;6.53;;;4.70;;
52047;SDS011;46904;49.438;8.752;2023-04-06T05:23:27;5.50;;;4.43;;
52047;SDS011;46904;49.438;8.752;2023-04-06T05:25:53;6.43;;;4.60;;
52047;SDS011;46904;49.438;8.752;2023-04-06T05:28:18;6.70;;;5.15;;
52047;SDS011;46904;49.438;8.752;2023-04-06T05:30:44;6.65;;;5.00;;
52047;SDS011;46904;49.438;8.752;2023-04-06T05:33:10;6.93;;;5.20;;
52047;SDS011;46904;49.438;8.752;2023-04-06T05:35:35;7.65;;;4.90;;
52047;SDS011;46904;49.438;8.752;2023-04-06T05:38:01;7.13;;;5.75;;
52047;SDS011;46904;49.438;8.752;2023-04-06T05:40:26;5.65;;;4.22;;
52047;SDS011;46904;49.438;8.752;2023-04-06T05:42:52;6.72;;;5.32;;
52047;SDS011;46904;49.438;8.752;2023-04-06T05:45:18;6.07;;;4.82;;
52047;SDS011;46904;49.438;8.752;2023-04-06T05:47:43;5.90;;;5.03;;
52047;SDS011;46904;49.438;8.752;2023-04-06T05:50:09;6.35;;;5.45;;
52047;SDS011;46904;49.438;8.752;2023-04-06T05:52:35;6.63;;;5.68;;
52047;SDS011;46904;49.438;8.752;2023-04-06T05:55:00;5.28;;;4.57;;
52047;SDS011;46904;49.438;8.752;2023-04-06T05:57:26;7.85;;;5.18;;
52047;SDS011;46904;49.438;8.752;2023-04-06T05:59:52;7.15;;;5.03;;
52047;SDS011;46904;49.438;8.752;2023-04-06T06:02:17;7.18;;;5.20;;
52047;SDS011;46904;49.438;8.752;2023-04-06T06:04:43;7.65;;;6.20;;
52047;SDS011;46904;49.438;8.752;2023-04-06T06:07:08;7.75;;;5.68;;
52047;SDS011;46904;49.438;8.752;2023-04-06T06:09:34;8.85;;;5.65;;
52047;SDS011;46904;49.438;8.752;2023-04-06T06:11:59;8.50;;;6.03;;
52047;SDS011;46904;49.438;8.752;2023-04-06T06:14:25;7.97;;;5.47;;
52047;SDS011;46904;49.438;8.752;2023-04-06T06:16:51;6.72;;;5.55;;
52047;SDS011;46904;49.438;8.752;2023-04-06T06:19:16;6.65;;;5.38;;
52047;SDS011;46904;49.438;8.752;2023-04-06T06:21:42;12.98;;;6.03;;
52047;SDS011;46904;49.438;8.752;2023-04-06T06:24:07;20.40;;;9.00;;
52047;SDS011;46904;49.438;8.752;2023-04-06T06:26:33;11.40;;;7.88;;
52047;SDS011;46904;49.438;8.752;2023-04-06T06:28:58;10.93;;;7.05;;
52047;SDS011;46904;49.438;8.752;2023-04-06T06:31:24;8.10;;;7.22;;
52047;SDS011;46904;49.438;8.752;2023-04-06T06:33:49;10.30;;;6.72;;
52047;SDS011;46904;49.438;8.752;2023-04-06T06:36:15;8.60;;;6.13;;
52047;SDS011;46904;49.438;8.752;2023-04-06T06:38:41;7.43;;;6.30;;
52047;SDS011;46904;49.438;8.752;2023-04-06T06:41:06;8.57;;;6.43;;
52047;SDS011;46904;49.438;8.752;2023-04-06T06:43:32;9.07;;;7.07;;
52047;SDS011;46904;49.438;8.752;2023-04-06T06:45:57;9.68;;;7.28;;
52047;SDS011;46904;49.438;8.752;2023-04-06T06:48:23;9.35;;;7.15;;
52047;SDS011;46904;49.438;8.752;2023-04-06T06:50:48;9.30;;;6.55;;
52047;SDS011;46904;49.438;8.752;2023-04-06T06:53:14;10.00;;;7.53;;
52047;SDS011;46904;49.438;8.752;2023-04-06T06:55:39;9.00;;;7.30;;
52047;SDS011;46904;49.438;8.752;2023-04-06T06:58:05;9.57;;;7.40;;
52047;SDS011;46904;49.438;8.752;2023-04-06T07:00:30;10.23;;;7.65;;
52047;SDS011;46904;49.438;8.752;2023-04-06T07:02:56;11.80;;;7.70;;
52047;SDS011;46904;49.438;8.752;2023-04-06T07:05:22;11.40;;;8.07;;
52047;SDS011;46904;49.438;8.752;2023-04-06T07:07:47;11.95;;;8.00;;
52047;SDS011;46904;49.438;8.752;2023-04-06T07:10:13;10.93;;;7.10;;
52047;SDS011;46904;49.438;8.752;2023-04-06T07:12:38;11.35;;;7.40;;
52047;SDS011;46904;49.438;8.752;2023-04-06T07:15:04;9.15;;;7.53;;
52047;SDS011;46904;49.438;8.752;2023-04-06T07:17:30;9.18;;;7.35;;
52047;SDS011;46904;49.438;8.752;2023-04-06T07:19:55;11.32;;;6.72;;
52047;SDS011;46904;49.438;8.752;2023-04-06T07:22:21;10.43;;;6.75;;
52047;SDS011;46904;49.438;8.752;2023-04-06T07:24:46;7.90;;;6.00;;
52047;SDS011;46904;49.438;8.752;2023-04-06T07:27:12;8.32;;;6.35;;
52047;SDS011;46904;49.438;8.752;2023-04-06T07:29:37;7.97;;;6.45;;
52047;SDS011;46904;49.438;8.752;2023-04-06T07:32:10;10.98;;;6.32;;
52047;SDS011;46904;49.438;8.752;2023-04-06T07:34:36;7.53;;;5.85;;
52047;SDS011;46904;49.438;8.752;2023-04-06T07:37:01;7.03;;;5.72;;
52047;SDS011;46904;49.438;8.752;2023-04-06T07:39:27;8.10;;;6.47;;
52047;SDS011;46904;49.438;8.752;2023-04-06T07:41:53;10.75;;;6.03;;
52047;SDS011;46904;49.438;8.752;2023-04-06T07:44:18;6.55;;;5.45;;
52047;SDS011;46904;49.438;8.752;2023-04-06T07:46:44;9.23;;;5.55;;
52047;SDS011;46904;49.438;8.752;2023-04-06T07:49:09;8.52;;;6.40;;
52047;SDS011;46904;49.438;8.752;2023-04-06T07:51:36;7.45;;;5.80;;
52047;SDS011;46904;49.438;8.752;2023-04-06T07:54:01;8.40;;;5.95;;
52047;SDS011;46904;49.438;8.752;2023-04-06T07:56:27;8.13;;;6.22;;
52047;SDS011;46904;49.438;8.752;2023-04-06T07:58:52;7.30;;;6.13;;
52047;SDS011;46904;49.438;8.752;2023-04-06T08:01:18;7.88;;;6.07;;
52047;SDS011;46904;49.438;8.752;2023-04-06T08:03:43;7.15;;;5.93;;
52047;SDS011;46904;49.438;8.752;2023-04-06T08:06:09;9.75;;;6.47;;
52047;SDS011;46904;49.438;8.752;2023-04-06T08:08:34;9.38;;;6.55;;
52047;SDS011;46904;49.438;8.752;2023-04-06T08:11:00;8.40;;;6.30;;
52047;SDS011;46904;49.438;8.752;2023-04-06T08:13:25;10.48;;;6.47;;
52047;SDS011;46904;49.438;8.752;2023-04-06T08:15:51;7.68;;;6.05;;
52047;SDS011;46904;49.438;8.752;2023-04-06T08:18:16;8.18;;;6.47;;
52047;SDS011;46904;49.438;8.752;2023-04-06T08:20:42;7.93;;;5.90;;
52047;SDS011;46904;49.438;8.752;2023-04-06T08:23:07;7.65;;;6.07;;
52047;SDS011;46904;49.438;8.752;2023-04-06T08:25:34;7.63;;;5.50;;
52047;SDS011;46904;49.438;8.752;2023-04-06T08:27:59;7.75;;;6.07;;
52047;SDS011;46904;49.438;8.752;2023-04-06T08:30:25;9.05;;;6.40;;
52047;SDS011;46904;49.438;8.752;2023-04-06T08:32:50;6.68;;;5.47;;
52047;SDS011;46904;49.438;8.752;2023-04-06T08:35:16;7.68;;;5.75;;
52047;SDS011;46904;49.438;8.752;2023-04-06T08:37:42;7.55;;;6.13;;
52047;SDS011;46904;49.438;8.752;2023-04-06T08:40:07;8.70;;;5.25;;
52047;SDS011;46904;49.438;8.752;2023-04-06T08:42:33;7.75;;;6.28;;
52047;SDS011;46904;49.438;8.752;2023-04-06T08:47:28;8.63;;;6.07;;
52047;SDS011;46904;49.438;8.752;2023-04-06T08:49:53;7.35;;;5.50;;
52047;SDS011;46904;49.438;8.752;2023-04-06T08:52:19;6.53;;;5.10;;
52047;SDS011;46904;49.438;8.752;2023-04-06T08:54:45;7.05;;;5.22;;
52047;SDS011;46904;49.438;8.752;2023-04-06T08:57:10;7.18;;;5.25;;
52047;SDS011;46904;49.438;8.752;2023-04-06T08:59:36;8.30;;;5.63;;
52047;SDS011;46904;49.438;8.752;2023-04-06T09:02:03;6.57;;;5.65;;
52047;SDS011;46904;49.438;8.752;2023-04-06T09:04:29;6.40;;;5.47;;
52047;SDS011;46904;49.438;8.752;2023-04-06T09:06:54;7.07;;;5.38;;
52047;SDS011;46904;49.438;8.752;2023-04-06T09:09:20;6.75;;;5.05;;
52047;SDS011;46904;49.438;8.752;2023-04-06T09:11:46;6.28;;;5.55;;
52047;SDS011;46904;49.438;8.752;2023-04-06T09:14:12;7.50;;;5.30;;
52047;SDS011;46904;49.438;8.752;2023-04-06T09:16:38;9.13;;;6.00;;
52047;SDS011;46904;49.438;8.752;2023-04-06T09:19:04;8.70;;;5.35;;
52047;SDS011;46904;49.438;8.752;2023-04-06T09:21:30;7.55;;;5.85;;
52047;SDS011;46904;49.438;8.752;2023-04-06T09:23:59;9.57;;;5.88;;
52047;SDS011;46904;49.438;8.752;2023-04-06T09:26:24;7.32;;;5.10;;
52047;SDS011;46904;49.438;8.752;2023-04-06T09:28:51;6.10;;;5.50;;
52047;SDS011;46904;49.438;8.752;2023-04-06T09:31:21;6.35;;;5.18;;
52047;SDS011;46904;49.438;8.752;2023-04-06T09:33:47;6.00;;;5.20;;
52047;SDS011;46904;49.438;8.752;2023-04-06T09:36:12;6.38;;;5.40;;
52047;SDS011;46904;49.438;8.752;2023-04-06T09:38:51;6.68;;;5.15;;
52047;SDS011;46904;49.438;8.752;2023-04-06T09:44:09;8.05;;;5.07;;
52047;SDS011;46904;49.438;8.752;2023-04-06T09:46:39;6.32;;;5.07;;
52047;SDS011;46904;49.438;8.752;2023-04-06T09:49:05;7.95;;;5.60;;
52047;SDS011;46904;49.438;8.752;2023-04-06T09:51:32;6.15;;;5.07;;
52047;SDS011;46904;49.438;8.752;2023-04-06T09:54:00;7.00;;;5.00;;
52047;SDS011;46904;49.438;8.752;2023-04-06T09:56:28;6.60;;;4.90;;
52047;SDS011;46904;49.438;8.752;2023-04-06T09:58:54;6.45;;;5.50;;
52047;SDS011;46904;49.438;8.752;2023-04-06T10:01:21;6.90;;;4.72;;
52047;SDS011;46904;49.438;8.752;2023-04-06T10:06:32;5.30;;;4.45;;
52047;SDS011;46904;49.438;8.752;2023-04-06T10:08:58;6.78;;;5.22;;
52047;SDS011;46904;49.438;8.752;2023-04-06T10:11:24;6.70;;;4.95;;
52047;SDS011;46904;49.438;8.752;2023-04-06T10:13:49;7.97;;;5.15;;
52047;SDS011;46904;49.438;8.752;2023-04-06T10:16:15;4.65;;;4.22;;
52047;SDS011;46904;49.438;8.752;2023-04-06T10:18:42;5.35;;;4.32;;
52047;SDS011;46904;49.438;8.752;2023-04-06T10:21:11;5.35;;;4.85;;
52047;SDS011;46904;49.438;8.752;2023-04-06T10:26:13;5.05;;;3.83;;
52047;SDS011;46904;49.438;8.752;2023-04-06T10:28:40;7.05;;;4.88;;
52047;SDS011;46904;49.438;8.752;2023-04-06T10:31:06;6.78;;;3.92;;
52047;SDS011;46904;49.438;8.752;2023-04-06T10:33:32;5.43;;;4.53;;
52047;SDS011;46904;49.438;8.752;2023-04-06T10:35:57;4.68;;;3.80;;
52047;SDS011;46904;49.438;8.752;2023-04-06T10:38:36;4.35;;;3.63;;
52047;SDS011;46904;49.438;8.752;2023-04-06T10:41:05;7.47;;;4.70;;
52047;SDS011;46904;49.438;8.752;2023-04-06T10:43:33;5.38;;;4.13;;
52047;SDS011;46904;49.438;8.752;2023-04-06T10:46:00;5.35;;;4.05;;
52047;SDS011;46904;49.438;8.752;2023-04-06T10:48:36;6.50;;;4.32;;
52047;SDS011;46904;49.438;8.752;2023-04-06T10:51:01;5.40;;;4.05;;
52047;SDS011;46904;49.438;8.752;2023-04-06T10:53:32;4.85;;;4.13;;
52047;SDS011;46904;49.438;8.752;2023-04-06T10:55:58;6.40;;;5.68;;
52047;SDS011;46904;49.438;8.752;2023-04-06T10:58:25;5.82;;;4.82;;
52047;SDS011;46904;49.438;8.752;2023-04-06T11:00:51;7.85;;;4.70;;
52047;SDS011;46904;49.438;8.752;2023-04-06T11:03:17;5.75;;;4.70;;
52047;SDS011;46904;49.438;8.752;2023-04-06T11:08:30;5.72;;;4.07;;
52047;SDS011;46904;49.438;8.752;2023-04-06T11:11:12;4.60;;;4.13;;
52047;SDS011;46904;49.438;8.752;2023-04-06T11:13:38;5.35;;;3.70;;
52047;SDS011;46904;49.438;8.752;2023-04-06T11:16:04;4.95;;;3.50;;
52047;SDS011;46904;49.438;8.752;2023-04-06T11:18:29;5.07;;;3.90;;
52047;SDS011;46904;49.438;8.752;2023-04-06T11:20:55;9.32;;;3.58;;
52047;SDS011;46904;49.438;8.752;2023-04-06T11:23:24;5.38;;;3.88;;
52047;SDS011;46904;49.438;8.752;2023-04-06T11:25:50;6.93;;;5.15;;
52047;SDS011;46904;49.438;8.752;2023-04-06T11:28:16;5.85;;;4.88;;
52047;SDS011;46904;49.438;8.752;2023-04-06T11:30:41;4.70;;;4.20;;
52047;SDS011;46904;49.438;8.752;2023-04-06T11:33:07;5.57;;;4.97;;
52047;SDS011;46904;49.438;8.752;2023-04-06T11:35:33;4.57;;;4.18;;
52047;SDS011;46904;49.438;8.752;2023-04-06T11:37:59;5.32;;;4.78;;
52047;SDS011;46904;49.438;8.752;2023-04-06T11:40:27;5.65;;;4.85;;
52047;SDS011;46904;49.438;8.752;2023-04-06T11:42:53;5.05;;;4.55;;
52047;SDS011;46904;49.438;8.752;2023-04-06T11:45:19;4.93;;;4.40;;
52047;SDS011;46904;49.438;8.752;2023-04-06T11:47:45;5.28;;;4.43;;
52047;SDS011;46904;49.438;8.752;2023-04-06T11:50:11;7.20;;;4.65;;
52047;SDS011;46904;49.438;8.752;2023-04-06T11:52:37;5.97;;;4.50;;
52047;SDS011;46904;49.438;8.752;2023-04-06T11:55:10;5.03;;;4.53;;
52047;SDS011;46904;49.438;8.752;2023-04-06T11:57:36;5.35;;;4.82;;
52047;SDS011;46904;49.438;8.752;2023-04-06T12:00:02;6.75;;;4.40;;
52047;SDS011;46904;49.438;8.752;2023-04-06T12:02:27;5.97;;;5.03;;
52047;SDS011;46904;49.438;8.752;2023-04-06T12:04:53;4.97;;;4.43;;
52047;SDS011;46904;49.438;8.752;2023-04-06T12:07:19;5.10;;;4.35;;
52047;SDS011;46904;49.438;8.752;2023-04-06T12:09:44;6.47;;;4.60;;
52047;SDS011;46904;49.438;8.752;2023-04-06T12:12:10;4.70;;;4.15;;
52047;SDS011;46904;49.438;8.752;2023-04-06T12:14:35;5.47;;;4.60;;
52047;SDS011;46904;49.438;8.752;2023-04-06T12:17:01;5.25;;;4.50;;
52047;SDS011;46904;49.438;8.752;2023-04-06T12:19:26;5.28;;;4.65;;
52047;SDS011;46904;49.438;8.752;2023-04-06T12:21:52;5.57;;;4.13;;
52047;SDS011;46904;49.438;8.752;2023-04-06T12:24:18;5.72;;;4.28;;
52047;SDS011;46904;49.438;8.752;2023-04-06T12:26:44;5.05;;;4.53;;
52047;SDS011;46904;49.438;8.752;2023-04-06T12:29:09;5.60;;;4.57;;
52047;SDS011;46904;49.438;8.752;2023-04-06T12:31:35;5.20;;;4.47;;
52047;SDS011;46904;49.438;8.752;2023-04-06T12:34:01;7.68;;;4.43;;
52047;SDS011;46904;49.438;8.752;2023-04-06T12:36:27;4.82;;;4.32;;
52047;SDS011;46904;49.438;8.752;2023-04-06T12:38:53;5.57;;;4.60;;
52047;SDS011;46904;49.438;8.752;2023-04-06T12:41:19;4.55;;;4.15;;
52047;SDS011;46904;49.438;8.752;2023-04-06T12:43:44;5.28;;;4.57;;
52047;SDS011;46904;49.438;8.752;2023-04-06T12:46:10;7.22;;;4.55;;
52047;SDS011;46904;49.438;8.752;2023-04-06T12:48:36;5.22;;;4.15;;
52047;SDS011;46904;49.438;8.752;2023-04-06T12:51:02;5.03;;;4.13;;
52047;SDS011;46904;49.438;8.752;2023-04-06T12:53:28;6.40;;;4.90;;
52047;SDS011;46904;49.438;8.752;2023-04-06T12:55:54;5.55;;;4.95;;
52047;SDS011;46904;49.438;8.752;2023-04-06T12:58:20;5.13;;;4.60;;
52047;SDS011;46904;49.438;8.752;2023-04-06T13:00:46;6.15;;;5.18;;
52047;SDS011;46904;49.438;8.752;2023-04-06T13:03:12;7.75;;;5.22;;
52047;SDS011;46904;49.438;8.752;2023-04-06T13:05:43;5.32;;;4.63;;
52047;SDS011;46904;49.438;8.752;2023-04-06T13:08:08;6.03;;;5.22;;
52047;SDS011;46904;49.438;8.752;2023-04-06T13:10:34;5.80;;;5.20;;
52047;SDS011;46904;49.438;8.752;2023-04-06T13:13:00;6.90;;;4.82;;
52047;SDS011;46904;49.438;8.752;2023-04-06T13:15:25;6.38;;;5.40;;
52047;SDS011;46904;49.438;8.752;2023-04-06T13:17:51;6.28;;;5.35;;
52047;SDS011;46904;49.438;8.752;2023-04-06T13:20:17;7.10;;;5.65;;
52047;SDS011;46904;49.438;8.752;2023-04-06T13:22:42;7.22;;;4.95;;
52047;SDS011;46904;49.438;8.752;2023-04-06T13:25:08;5.97;;;5.10;;
52047;SDS011;46904;49.438;8.752;2023-04-06T13:27:33;6.47;;;5.38;;
52047;SDS011;46904;49.438;8.752;2023-04-06T13:29:59;5.78;;;4.78;;
52047;SDS011;46904;49.438;8.752;2023-04-06T13:32:24;7.40;;;5.22;;
52047;SDS011;46904;49.438;8.752;2023-04-06T13:34:50;5.18;;;4.68;;
52047;SDS011;46904;49.438;8.752;2023-04-06T13:37:19;5.60;;;4.88;;
52047;SDS011;46904;49.438;8.752;2023-04-06T13:39:45;5.90;;;4.63;;
52047;SDS011;46904;49.438;8.752;2023-04-06T13:42:11;5.32;;;4.28;;
52047;SDS011;46904;49.438;8.752;2023-04-06T13:44:36;6.65;;;4.88;;
52047;SDS011;46904;49.438;8.752;2023-04-06T13:47:02;5.40;;;4.75;;
52047;SDS011;46904;49.438;8.752;2023-04-06T13:49:27;6.07;;;4.57;;
52047;SDS011;46904;49.438;8.752;2023-04-06T13:51:55;6.40;;;5.38;;
52047;SDS011;46904;49.438;8.752;2023-04-06T13:54:21;6.55;;;5.25;;
52047;SDS011;46904;49.438;8.752;2023-04-06T13:56:46;6.35;;;4.60;;
52047;SDS011;46904;49.438;8.752;2023-04-06T13:59:12;6.68;;;4.97;;
52047;SDS011;46904;49.438;8.752;2023-04-06T14:01:38;5.20;;;4.63;;
52047;SDS011;46904;49.438;8.752;2023-04-06T14:04:04;6.82;;;4.88;;
52047;SDS011;46904;49.438;8.752;2023-04-06T14:06:29;6.20;;;5.55;;
52047;SDS011;46904;49.438;8.752;2023-04-06T14:08:55;5.38;;;4.35;;
52047;SDS011;46904;49.438;8.752;2023-04-06T14:11:20;5.50;;;4.65;;
52047;SDS011;46904;49.438;8.752;2023-04-06T14:13:46;6.07;;;4.55;;
52047;SDS011;46904;49.438;8.752;2023-04-06T14:16:12;5.90;;;4.72;;
52047;SDS011;46904;49.438;8.752;2023-04-06T14:18:38;6.32;;;5.43;;
52047;SDS011;46904;49.438;8.752;2023-04-06T14:21:03;8.18;;;5.57;;
52047;SDS011;46904;49.438;8.752;2023-04-06T14:23:29;7.43;;;5.25;;
52047;SDS011;46904;49.438;8.752;2023-04-06T14:26:04;6.40;;;5.38;;
52047;SDS011;46904;49.438;8.752;2023-04-06T14:28:31;5.35;;;4.70;;
52047;SDS011;46904;49.438;8.752;2023-04-06T14:30:58;5.63;;;4.72;;
52047;SDS011;46904;49.438;8.752;2023-04-06T14:33:27;6.43;;;4.68;;
52047;SDS011;46904;49.438;8.752;2023-04-06T14:35:52;7.27;;;5.07;;
52047;SDS011;46904;49.438;8.752;2023-04-06T14:38:21;5.63;;;4.47;;
52047;SDS011;46904;49.438;8.752;2023-04-06T14:40:47;7.47;;;5.13;;
52047;SDS011;46904;49.438;8.752;2023-04-06T14:43:18;6.20;;;5.20;;
52047;SDS011;46904;49.438;8.752;2023-04-06T14:45:44;6.22;;;4.78;;
52047;SDS011;46904;49.438;8.752;2023-04-06T14:48:09;7.07;;;5.15;;
52047;SDS011;46904;49.438;8.752;2023-04-06T14:50:35;5.97;;;4.75;;